Time;durP1;ratioP1;P1;durP2;ratioP2;P2;SDS_P1;SDS_P2;PMS_P1;PMS_P2;Temp;Humidity;BMP_temperature;BMP_pressure;BME280_temperature;BME280_humidity;BME280_pressure;Samples;Min_cycle;Max_cycle;Signal;HPM_P1;HPM_P2
2022/09/03 00:00:54;;;;;;;13.00;9.40;;;;;;;;;;2014952;29;20074;-88
2022/09/03 00:02:06;;;;;;;17.90;10.65;;;;;;;;;;2015360;29;20571;-88
2022/09/03 00:03:17;;;;;;;15.95;10.73;;;;;;;;;;2015745;29;20039;-90
2022/09/03 00:04:35;;;;;;;15.68;10.15;;;;;;;;;;2016168;29;20017;-89
2022/09/03 00:05:57;;;;;;;17.15;9.82;;;;;;;;;;2007538;29;20355;-89
2022/09/03 00:07:02;;;;;;;15.20;10.82;;;;;;;;;;2010058;29;20103;-89
2022/09/03 00:08:24;;;;;;;13.80;9.48;;;;;;;;;;2007335;29;20424;-87
2022/09/03 00:09:30;;;;;;;16.27;10.60;;;;;;;;;;2010403;29;20052;-89
2022/09/03 00:10:40;;;;;;;14.75;10.35;;;;;;;;;;2007364;29;20026;-89
2022/09/03 00:11:49;;;;;;;14.35;9.18;;;;;;;;;;2008949;29;20037;-87
2022/09/03 00:12:53;;;;;;;14.43;10.63;;;;;;;;;;2014933;29;20454;-89
2022/09/03 00:14:03;;;;;;;17.42;11.30;;;;;;;;;;2015118;29;20132;-89
2022/09/03 00:15:08;;;;;;;15.77;11.63;;;;;;;;;;2015714;29;20097;-89
2022/09/03 00:16:11;;;;;;;15.45;10.70;;;;;;;;;;2007454;29;20536;-89
2022/09/03 00:17:46;;;;;;;17.27;11.18;;;;;;;;;;2007402;29;20148;-89
2022/09/03 00:18:53;;;;;;;16.80;11.38;;;;;;;;;;2015576;29;20036;-89
2022/09/03 00:20:06;;;;;;;18.50;11.85;;;;;;;;;;2015806;29;20025;-89
2022/09/03 00:21:11;;;;;;;17.23;11.43;;;;;;;;;;2007320;29;20057;-89
2022/09/03 00:22:17;;;;;;;17.45;11.80;;;;;;;;;;2007946;29;20056;-89
2022/09/03 00:23:21;;;;;;;16.95;11.70;;;;;;;;;;2007387;29;20110;-89
2022/09/03 00:24:27;;;;;;;18.55;11.23;;;;;;;;;;2007914;29;20029;-88
2022/09/03 00:25:53;;;;;;;17.30;11.60;;;;;;;;;;2007437;29;20548;-88
2022/09/03 00:27:00;;;;;;;16.70;10.65;;;;;;;;;;2010531;29;20474;-88
2022/09/03 00:28:06;;;;;;;14.45;9.60;;;;;;;;;;2015121;29;20056;-89
2022/09/03 00:29:14;;;;;;;15.18;9.18;;;;;;;;;;2007495;29;20029;-88
2022/09/03 00:30:16;;;;;;;11.50;8.68;;;;;;;;;;2008323;29;20093;-89
2022/09/03 00:32:02;;;;;;;12.13;8.73;;;;;;;;;;2007396;29;20350;-88
2022/09/03 00:33:09;;;;;;;16.70;9.18;;;;;;;;;;2013071;29;20025;-88
2022/09/03 00:34:25;;;;;;;12.23;8.77;;;;;;;;;;2016152;29;20033;-88
2022/09/03 00:35:31;;;;;;;11.57;8.98;;;;;;;;;;2015948;29;20025;-89
2022/09/03 00:36:41;;;;;;;11.40;8.73;;;;;;;;;;2007285;29;20025;-89
2022/09/03 00:37:42;;;;;;;12.88;8.65;;;;;;;;;;2011225;29;20037;-88
2022/09/03 00:38:43;;;;;;;11.90;7.70;;;;;;;;;;2007331;29;20041;-87
2022/09/03 00:39:44;;;;;;;12.95;8.35;;;;;;;;;;2007463;29;20026;-89
2022/09/03 00:41:09;;;;;;;10.95;8.30;;;;;;;;;;1670280;29;10269398;-88
2022/09/03 00:42:24;;;;;;;14.63;8.27;;;;;;;;;;2015013;29;20186;-87
2022/09/03 00:43:46;;;;;;;13.02;8.40;;;;;;;;;;2007464;29;20060;-88
2022/09/03 00:44:56;;;;;;;11.52;8.10;;;;;;;;;;2007261;29;20140;-88
2022/09/03 00:46:04;;;;;;;11.68;8.20;;;;;;;;;;2007331;29;20021;-89
2022/09/03 00:47:28;;;;;;;10.05;8.05;;;;;;;;;;2008427;29;20572;-88
2022/09/03 00:48:37;;;;;;;11.45;8.15;;;;;;;;;;2015231;29;20515;-89
2022/09/03 00:49:53;;;;;;;10.27;8.20;;;;;;;;;;2014988;29;20029;-89
2022/09/03 00:51:09;;;;;;;11.93;8.00;;;;;;;;;;2015121;29;20041;-88
2022/09/03 00:52:24;;;;;;;11.45;8.32;;;;;;;;;;2015756;29;20045;-88
2022/09/03 00:53:47;;;;;;;13.43;8.55;;;;;;;;;;2015697;29;20043;-89
2022/09/03 00:54:50;;;;;;;14.15;8.77;;;;;;;;;;2014904;29;20052;-89
2022/09/03 00:56:15;;;;;;;12.45;8.82;;;;;;;;;;2015108;29;20208;-89
2022/09/03 00:57:24;;;;;;;11.85;8.35;;;;;;;;;;2014821;29;20021;-89
2022/09/03 00:58:58;;;;;;;12.00;8.90;;;;;;;;;;2007300;29;20054;-89
2022/09/03 01:00:25;;;;;;;15.10;9.50;;;;;;;;;;1677111;29;10003305;-87
2022/09/03 01:01:35;;;;;;;15.82;9.15;;;;;;;;;;2011944;29;20040;-88
2022/09/03 01:02:49;;;;;;;12.48;8.38;;;;;;;;;;2007281;29;20033;-88
2022/09/03 01:04:11;;;;;;;12.25;8.52;;;;;;;;;;2007312;29;20057;-87
2022/09/03 01:05:21;;;;;;;11.73;8.23;;;;;;;;;;2008556;29;20088;-88
2022/09/03 01:06:41;;;;;;;12.15;8.68;;;;;;;;;;2009750;29;20445;-88
2022/09/03 01:08:17;;;;;;;12.18;8.43;;;;;;;;;;2008495;29;20184;-87
2022/09/03 01:09:26;;;;;;;11.93;8.20;;;;;;;;;;2005264;29;20235;-88
2022/09/03 01:10:52;;;;;;;13.32;8.80;;;;;;;;;;2009703;29;20029;-88
2022/09/03 01:11:54;;;;;;;10.35;8.35;;;;;;;;;;2008517;29;20025;-88
2022/09/03 01:12:54;;;;;;;10.48;8.07;;;;;;;;;;2008764;29;20033;-88
2022/09/03 01:14:23;;;;;;;11.35;8.70;;;;;;;;;;2016106;29;20516;-87
2022/09/03 01:15:49;;;;;;;11.35;8.00;;;;;;;;;;2016028;29;20760;-88
2022/09/03 01:16:57;;;;;;;11.75;7.50;;;;;;;;;;2016515;29;20041;-88
2022/09/03 01:18:29;;;;;;;11.23;7.95;;;;;;;;;;2016118;29;20032;-87
2022/09/03 01:19:34;;;;;;;11.13;7.85;;;;;;;;;;2016504;29;20248;-88
2022/09/03 01:20:45;;;;;;;12.23;8.02;;;;;;;;;;2016896;29;20025;-88
2022/09/03 01:22:04;;;;;;;12.23;7.90;;;;;;;;;;2016110;29;20131;-88
2022/09/03 01:23:07;;;;;;;11.02;8.50;;;;;;;;;;2016471;29;20037;-88
2022/09/03 01:24:16;;;;;;;12.13;8.80;;;;;;;;;;2016054;29;20531;-88
2022/09/03 01:25:30;;;;;;;10.57;7.73;;;;;;;;;;1922523;29;10265415;-88
2022/09/03 01:26:36;;;;;;;10.68;8.40;;;;;;;;;;2008296;29;20247;-88
2022/09/03 01:28:18;;;;;;;12.15;7.95;;;;;;;;;;1950284;29;10059565;-88
2022/09/03 01:29:25;;;;;;;11.65;8.75;;;;;;;;;;2014091;29;20239;-88
2022/09/03 01:30:30;;;;;;;10.43;8.10;;;;;;;;;;2016870;29;20096;-89
2022/09/03 01:31:56;;;;;;;11.27;8.40;;;;;;;;;;2008582;29;20078;-89
2022/09/03 01:32:56;;;;;;;11.55;8.77;;;;;;;;;;2011591;29;20033;-88
2022/09/03 01:34:19;;;;;;;10.20;8.55;;;;;;;;;;2016186;29;20041;-89
2022/09/03 01:35:25;;;;;;;12.40;8.73;;;;;;;;;;2008508;29;20049;-89
2022/09/03 01:36:33;;;;;;;16.33;9.23;;;;;;;;;;2008230;29;20029;-89
2022/09/03 01:37:39;;;;;;;12.27;8.65;;;;;;;;;;2009278;29;20544;-89
2022/09/03 01:38:54;;;;;;;14.75;9.65;;;;;;;;;;2016738;29;20501;-88
2022/09/03 01:40:19;;;;;;;11.65;8.63;;;;;;;;;;2008359;29;20032;-89
2022/09/03 01:43:14;;;;;;;13.98;8.68;;;;;;;;;;2016890;29;20500;-89
2022/09/03 01:44:31;;;;;;;13.25;9.18;;;;;;;;;;2015972;29;20037;-88
2022/09/03 01:45:47;;;;;;;13.10;9.02;;;;;;;;;;2008254;29;20112;-89
2022/09/03 01:46:57;;;;;;;12.27;8.75;;;;;;;;;;2008425;29;20033;-89
2022/09/03 01:48:19;;;;;;;13.40;9.20;;;;;;;;;;2009584;29;20033;-88
2022/09/03 01:49:40;;;;;;;12.25;8.88;;;;;;;;;;2016044;29;20028;-88
2022/09/03 01:50:58;;;;;;;12.55;9.88;;;;;;;;;;2016515;29;20150;-88
2022/09/03 01:52:10;;;;;;;11.80;9.35;;;;;;;;;;2015946;29;20060;-88
2022/09/03 01:53:22;;;;;;;;;;;;;;;;;;2016655;29;20040;-88
2022/09/03 01:54:57;;;;;;;13.82;9.27;;;;;;;;;;2015849;29;19987;-88
2022/09/03 01:56:23;;;;;;;10.65;9.05;;;;;;;;;;2016504;29;20029;-88
2022/09/03 01:57:48;;;;;;;12.30;9.15;;;;;;;;;;2016587;29;20118;-88
2022/09/03 01:59:00;;;;;;;14.27;10.10;;;;;;;;;;2015854;29;20033;-88
2022/09/03 02:00:12;;;;;;;11.75;9.45;;;;;;;;;;1679365;29;10003427;-88
2022/09/03 02:01:20;;;;;;;11.75;9.07;;;;;;;;;;2016088;29;20672;-88
2022/09/03 02:02:24;;;;;;;12.40;9.10;;;;;;;;;;2016642;29;20033;-87
2022/09/03 02:03:32;;;;;;;13.27;9.43;;;;;;;;;;2016513;29;20680;-88
2022/09/03 02:04:32;;;;;;;15.32;9.88;;;;;;;;;;2016690;29;20025;-88
2022/09/03 02:05:34;;;;;;;15.63;9.95;;;;;;;;;;2008230;29;20147;-88
2022/09/03 02:06:35;;;;;;;11.75;8.52;;;;;;;;;;2008334;29;20353;-88
2022/09/03 02:07:43;;;;;;;15.43;10.82;;;;;;;;;;2016652;29;20025;-89
2022/09/03 02:08:43;;;;;;;13.80;10.10;;;;;;;;;;2015889;29;20134;-89
2022/09/03 02:09:44;;;;;;;12.52;9.15;;;;;;;;;;2015749;29;20033;-89
2022/09/03 02:10:46;;;;;;;13.73;9.82;;;;;;;;;;2015797;29;20049;-89
2022/09/03 02:12:02;;;;;;;15.88;9.77;;;;;;;;;;2008192;29;20124;-89
2022/09/03 02:13:29;;;;;;;12.52;9.15;;;;;;;;;;2012836;29;20033;-89
2022/09/03 02:14:30;;;;;;;12.98;9.57;;;;;;;;;;2016496;29;20361;-88
2022/09/03 02:15:33;;;;;;;14.15;9.43;;;;;;;;;;2015981;29;20032;-89
2022/09/03 02:16:34;;;;;;;11.60;8.80;;;;;;;;;;2016350;29;20120;-88
2022/09/03 02:17:35;;;;;;;13.10;9.30;;;;;;;;;;1679839;29;10001159;-89
2022/09/03 02:18:41;;;;;;;13.63;9.57;;;;;;;;;;2015781;29;20029;-88
2022/09/03 02:19:41;;;;;;;13.10;9.40;;;;;;;;;;2008003;29;20114;-89
2022/09/03 02:20:42;;;;;;;10.52;7.82;;;;;;;;;;1337927;29;10001727;-88
2022/09/03 02:21:49;;;;;;;12.13;8.20;;;;;;;;;;2015693;29;20033;-89
2022/09/03 02:22:51;;;;;;;11.05;9.00;;;;;;;;;;2008034;29;20056;-88
2022/09/03 02:23:51;;;;;;;11.40;8.02;;;;;;;;;;2000480;29;20037;-89
2022/09/03 02:24:52;;;;;;;10.32;7.63;;;;;;;;;;2008036;29;20464;-89
2022/09/03 02:25:56;;;;;;;12.52;9.30;;;;;;;;;;2016480;29;20405;-89
2022/09/03 02:26:56;;;;;;;12.35;8.95;;;;;;;;;;2016334;29;20372;-88
2022/09/03 02:27:57;;;;;;;12.55;8.82;;;;;;;;;;2016341;29;20021;-89
2022/09/03 02:28:58;;;;;;;14.52;9.65;;;;;;;;;;2015621;29;20108;-88
2022/09/03 02:29:59;;;;;;;12.50;9.10;;;;;;;;;;2015911;29;20512;-87
2022/09/03 02:30:59;;;;;;;11.70;8.40;;;;;;;;;;2007892;29;20109;-89
2022/09/03 02:32:00;;;;;;;11.93;9.15;;;;;;;;;;2008065;29;20033;-89
2022/09/03 02:33:00;;;;;;;11.65;8.18;;;;;;;;;;2007998;29;20033;-88
2022/09/03 02:34:01;;;;;;;13.88;9.40;;;;;;;;;;2015715;29;20040;-89
2022/09/03 02:35:01;;;;;;;13.70;9.50;;;;;;;;;;2007774;29;20394;-90
2022/09/03 02:36:05;;;;;;;14.32;9.30;;;;;;;;;;2000391;29;20125;-90
2022/09/03 02:37:19;;;;;;;12.07;8.00;;;;;;;;;;2008353;29;20146;-88
2022/09/03 02:38:24;;;;;;;13.27;8.70;;;;;;;;;;2010041;29;20353;-95
2022/09/03 02:39:26;;;;;;;12.90;9.43;;;;;;;;;;2003313;29;20365;-95
2022/09/03 02:40:26;;;;;;;17.65;8.70;;;;;;;;;;1674812;29;10002065;-96
2022/09/03 02:41:27;;;;;;;13.52;8.98;;;;;;;;;;2002556;29;20333;-96
2022/09/03 02:42:27;;;;;;;13.05;9.15;;;;;;;;;;1995021;29;20409;-96
2022/09/03 02:43:41;;;;;;;12.85;8.27;;;;;;;;;;2009867;29;20125;-95
2022/09/03 02:44:58;;;;;;;15.32;8.65;;;;;;;;;;2011591;29;20036;-95
2022/09/03 02:46:04;;;;;;;13.68;9.15;;;;;;;;;;2010116;29;20136;-96
2022/09/03 02:47:08;;;;;;;14.48;8.13;;;;;;;;;;2003746;29;20022;-96
2022/09/03 02:48:14;;;;;;;11.63;8.48;;;;;;;;;;2010254;29;20039;-96
2022/09/03 02:49:15;;;;;;;11.50;8.63;;;;;;;;;;2008525;29;20029;-89
2022/09/03 02:50:15;;;;;;;11.25;8.52;;;;;;;;;;2007669;29;20545;-89
2022/09/03 02:51:15;;;;;;;13.45;8.80;;;;;;;;;;2007993;29;20077;-90
2022/09/03 02:52:16;;;;;;;12.38;8.10;;;;;;;;;;2007729;29;20014;-89
2022/09/03 02:53:16;;;;;;;12.98;9.15;;;;;;;;;;2007970;29;20021;-89
2022/09/03 02:54:17;;;;;;;12.43;8.20;;;;;;;;;;2015381;29;20024;-87
2022/09/03 02:55:18;;;;;;;11.15;8.30;;;;;;;;;;1670516;29;10254513;-89
2022/09/03 02:56:18;;;;;;;11.63;8.80;;;;;;;;;;2015383;29;20113;-89
2022/09/03 02:57:19;;;;;;;13.18;8.50;;;;;;;;;;2018682;29;20118;-89
2022/09/03 02:58:19;;;;;;;12.38;8.60;;;;;;;;;;2016142;29;20100;-87
2022/09/03 02:59:21;;;;;;;10.65;8.65;;;;;;;;;;2007668;29;20025;-88
2022/09/03 03:00:22;;;;;;;14.25;9.00;;;;;;;;;;2007677;29;20032;-88
2022/09/03 03:01:22;;;;;;;10.38;8.13;;;;;;;;;;2007761;29;20113;-88
2022/09/03 03:02:23;;;;;;;12.32;8.20;;;;;;;;;;2007589;29;20257;-87
2022/09/03 03:03:23;;;;;;;12.18;8.70;;;;;;;;;;2008354;29;20124;-90
2022/09/03 03:04:24;;;;;;;11.77;8.60;;;;;;;;;;2008166;29;20026;-89
2022/09/03 03:05:35;;;;;;;13.10;9.13;;;;;;;;;;2008530;29;20021;-89
2022/09/03 03:06:35;;;;;;;14.27;8.50;;;;;;;;;;2008010;29;20026;-89
2022/09/03 03:07:39;;;;;;;14.40;9.18;;;;;;;;;;2007913;29;20033;-89
2022/09/03 03:08:39;;;;;;;12.05;8.70;;;;;;;;;;2000482;29;20033;-89
2022/09/03 03:09:40;;;;;;;13.00;8.07;;;;;;;;;;2000242;29;20042;-90
2022/09/03 03:10:43;;;;;;;12.23;8.45;;;;;;;;;;2007710;29;20064;-89
2022/09/03 03:11:44;;;;;;;13.05;8.45;;;;;;;;;;2016470;29;20036;-90
2022/09/03 03:12:44;;;;;;;13.18;8.85;;;;;;;;;;2016336;29;20103;-89
2022/09/03 03:13:45;;;;;;;12.30;8.38;;;;;;;;;;2016178;29;20341;-89
2022/09/03 03:14:46;;;;;;;11.43;8.25;;;;;;;;;;2016374;29;20036;-88
2022/09/03 03:15:47;;;;;;;15.23;8.90;;;;;;;;;;2015556;29;20080;-88
2022/09/03 03:16:49;;;;;;;13.20;8.00;;;;;;;;;;2015440;29;20517;-89
2022/09/03 03:17:49;;;;;;;12.52;8.65;;;;;;;;;;2015257;29;20029;-89
2022/09/03 03:18:51;;;;;;;15.93;8.23;;;;;;;;;;2015396;29;20028;-89
2022/09/03 03:19:51;;;;;;;14.48;8.80;;;;;;;;;;2015323;29;20029;-88
2022/09/03 03:20:53;;;;;;;14.25;9.00;;;;;;;;;;2007728;29;20029;-88
2022/09/03 03:21:53;;;;;;;13.20;9.40;;;;;;;;;;2007649;29;20037;-88
2022/09/03 03:22:53;;;;;;;11.20;8.32;;;;;;;;;;2007709;29;20096;-89
2022/09/03 03:23:54;;;;;;;11.82;7.70;;;;;;;;;;2007458;29;20030;-89
2022/09/03 03:24:56;;;;;;;12.80;8.45;;;;;;;;;;2007549;29;20496;-89
2022/09/03 03:26:03;;;;;;;13.80;9.23;;;;;;;;;;2007866;29;20036;-89
2022/09/03 03:27:07;;;;;;;14.75;9.18;;;;;;;;;;2015640;29;20120;-89
2022/09/03 03:28:07;;;;;;;13.27;8.40;;;;;;;;;;2007593;29;20143;-90
2022/09/03 03:29:15;;;;;;;12.13;8.65;;;;;;;;;;2007686;29;20053;-89
2022/09/03 03:30:16;;;;;;;12.55;9.00;;;;;;;;;;2015845;29;20485;-89
2022/09/03 03:31:19;;;;;;;13.13;8.77;;;;;;;;;;2007465;29;20037;-89
2022/09/03 03:32:20;;;;;;;15.05;8.40;;;;;;;;;;2007555;29;20445;-89
2022/09/03 03:33:21;;;;;;;12.23;8.70;;;;;;;;;;2007747;29;20038;-88
2022/09/03 03:34:21;;;;;;;15.65;8.68;;;;;;;;;;2015228;29;20028;-89
2022/09/03 03:35:22;;;;;;;14.18;9.70;;;;;;;;;;2007510;29;20108;-90
2022/09/03 03:36:25;;;;;;;16.77;9.23;;;;;;;;;;2007558;29;20026;-89
2022/09/03 03:37:25;;;;;;;11.00;8.30;;;;;;;;;;2007651;29;20026;-89
2022/09/03 03:38:26;;;;;;;15.70;9.15;;;;;;;;;;2007450;29;20022;-89
2022/09/03 03:39:26;;;;;;;12.48;9.60;;;;;;;;;;2007661;29;20124;-89
2022/09/03 03:40:26;;;;;;;12.38;8.93;;;;;;;;;;2007389;29;20517;-89
2022/09/03 03:41:37;;;;;;;14.82;9.07;;;;;;;;;;2015426;29;20143;-90
2022/09/03 03:42:37;;;;;;;15.45;8.63;;;;;;;;;;2014085;29;20032;-89
2022/09/03 03:43:38;;;;;;;13.15;8.95;;;;;;;;;;2007723;29;20061;-90
2022/09/03 03:44:38;;;;;;;11.90;8.35;;;;;;;;;;2015913;29;20032;-88
2022/09/03 03:45:39;;;;;;;12.50;9.23;;;;;;;;;;2015970;29;20033;-87
2022/09/03 03:46:40;;;;;;;13.07;9.38;;;;;;;;;;2015800;29;20055;-89
2022/09/03 03:47:41;;;;;;;14.23;9.43;;;;;;;;;;2007426;29;20108;-88
2022/09/03 03:48:41;;;;;;;11.10;7.60;;;;;;;;;;2007637;29;20448;-89
2022/09/03 03:49:43;;;;;;;14.57;8.60;;;;;;;;;;2007660;29;20029;-90
2022/09/03 03:50:43;;;;;;;12.38;8.82;;;;;;;;;;2007392;29;20032;-89
2022/09/03 03:51:43;;;;;;;15.18;9.63;;;;;;;;;;2015348;29;20154;-90
2022/09/03 03:52:44;;;;;;;12.65;9.25;;;;;;;;;;2016184;29;20037;-90
2022/09/03 03:53:53;;;;;;;12.30;8.73;;;;;;;;;;1856249;29;10267069;-90
2022/09/03 03:54:54;;;;;;;13.35;8.43;;;;;;;;;;1666490;29;10180559;-90
2022/09/03 03:55:57;;;;;;;11.75;8.32;;;;;;;;;;2000180;29;20523;-89
2022/09/03 03:56:57;;;;;;;16.10;9.45;;;;;;;;;;2007754;29;20028;-89
2022/09/03 03:57:58;;;;;;;13.00;8.73;;;;;;;;;;2007434;29;20117;-90
2022/09/03 03:58:58;;;;;;;12.73;8.75;;;;;;;;;;2007688;29;20033;-89
2022/09/03 03:59:59;;;;;;;12.13;8.40;;;;;;;;;;2007521;29;20057;-90
2022/09/03 04:01:09;;;;;;;12.40;8.50;;;;;;;;;;2007836;29;20073;-89
2022/09/03 04:02:10;;;;;;;13.38;8.52;;;;;;;;;;2017026;29;20100;-90
2022/09/03 04:03:10;;;;;;;11.60;8.27;;;;;;;;;;2015866;29;20048;-89
2022/09/03 04:04:11;;;;;;;11.77;8.30;;;;;;;;;;2007485;29;20461;-89
2022/09/03 04:05:11;;;;;;;13.73;8.50;;;;;;;;;;2007285;29;20090;-90
2022/09/03 04:06:13;;;;;;;12.25;8.15;;;;;;;;;;2015188;29;20029;-89
2022/09/03 04:07:13;;;;;;;14.35;9.25;;;;;;;;;;2007611;29;20060;-89
2022/09/03 04:08:14;;;;;;;14.75;8.35;;;;;;;;;;2007344;29;20253;-89
2022/09/03 04:09:14;;;;;;;13.25;8.60;;;;;;;;;;2007535;29;20021;-89
2022/09/03 04:10:15;;;;;;;12.65;9.00;;;;;;;;;;2007466;29;20470;-88
2022/09/03 04:11:18;;;;;;;10.88;8.30;;;;;;;;;;1999842;29;20114;-89
2022/09/03 04:12:19;;;;;;;12.52;8.68;;;;;;;;;;2007799;29;20088;-88
2022/09/03 04:13:19;;;;;;;13.05;9.27;;;;;;;;;;2015106;29;20028;-90
2022/09/03 04:14:20;;;;;;;13.77;8.43;;;;;;;;;;2007384;29;20030;-89
2022/09/03 04:15:21;;;;;;;15.65;9.30;;;;;;;;;;2007728;29;20041;-89
2022/09/03 04:16:24;;;;;;;10.65;8.48;;;;;;;;;;2015048;29;20536;-90
2022/09/03 04:17:25;;;;;;;14.07;9.07;;;;;;;;;;2015114;29;20036;-89
2022/09/03 04:18:25;;;;;;;11.10;8.30;;;;;;;;;;1676109;29;10108704;-90
2022/09/03 04:19:27;;;;;;;11.77;8.50;;;;;;;;;;2016061;29;20017;-90
2022/09/03 04:20:27;;;;;;;11.70;7.75;;;;;;;;;;2015250;29;20111;-90
2022/09/03 04:21:29;;;;;;;12.63;9.00;;;;;;;;;;2007606;29;20451;-90
2022/09/03 04:22:30;;;;;;;13.93;8.80;;;;;;;;;;2007796;29;20109;-90
2022/09/03 04:23:32;;;;;;;11.43;8.20;;;;;;;;;;2015069;29;20469;-90
2022/09/03 04:24:32;;;;;;;10.68;7.97;;;;;;;;;;2015331;29;20032;-90
2022/09/03 04:25:33;;;;;;;12.40;8.25;;;;;;;;;;2007381;29;20504;-90
2022/09/03 04:26:34;;;;;;;15.40;8.05;;;;;;;;;;2007431;29;20075;-90
2022/09/03 04:27:34;;;;;;;11.93;8.48;;;;;;;;;;2015000;29;20036;-90
2022/09/03 04:28:35;;;;;;;10.15;7.35;;;;;;;;;;2015134;29;20112;-90
2022/09/03 04:29:35;;;;;;;12.85;7.95;;;;;;;;;;2007430;29;20095;-90
2022/09/03 04:30:36;;;;;;;13.35;8.18;;;;;;;;;;1999917;29;20033;-90
2022/09/03 04:31:37;;;;;;;12.88;8.20;;;;;;;;;;2007370;29;20094;-90
2022/09/03 04:32:53;;;;;;;10.68;7.03;;;;;;;;;;2007476;29;20044;-90
2022/09/03 04:33:53;;;;;;;11.20;8.20;;;;;;;;;;1660993;29;10401469;-90
2022/09/03 04:34:54;;;;;;;10.45;7.63;;;;;;;;;;2007542;29;20025;-90
2022/09/03 04:36:04;;;;;;;10.20;7.07;;;;;;;;;;1999726;29;20030;-90
2022/09/03 04:37:04;;;;;;;10.10;7.53;;;;;;;;;;2007618;29;20610;-91
2022/09/03 04:38:05;;;;;;;10.77;6.63;;;;;;;;;;1999755;29;20443;-90
2022/09/03 04:39:05;;;;;;;10.07;6.40;;;;;;;;;;2008846;29;20037;-91
2022/09/03 04:40:06;;;;;;;9.68;7.03;;;;;;;;;;2017254;29;20052;-90
2022/09/03 04:41:09;;;;;;;7.30;6.50;;;;;;;;;;2017323;29;20029;-90
2022/09/03 04:42:10;;;;;;;14.40;6.97;;;;;;;;;;2008822;29;20452;-90
2022/09/03 04:43:10;;;;;;;10.85;6.47;;;;;;;;;;2009043;29;20094;-90
2022/09/03 04:44:11;;;;;;;8.27;6.47;;;;;;;;;;2017264;29;20029;-90
2022/09/03 04:45:17;;;;;;;9.25;7.22;;;;;;;;;;1756739;29;10254458;-90
2022/09/03 04:46:19;;;;;;;11.98;10.55;;;;;;;;;;2017363;29;20274;-91
2022/09/03 04:47:19;;;;;;;10.38;8.70;;;;;;;;;;2008898;29;20520;-90
2022/09/03 04:48:20;;;;;;;10.65;7.40;;;;;;;;;;2001325;29;20026;-90
2022/09/03 04:49:20;;;;;;;8.18;6.28;;;;;;;;;;2001392;29;20030;-90
2022/09/03 04:50:22;;;;;;;9.52;6.28;;;;;;;;;;1673182;29;10000314;-89
2022/09/03 04:51:28;;;;;;;8.95;5.68;;;;;;;;;;2008754;29;20113;-90
2022/09/03 04:52:30;;;;;;;9.13;5.97;;;;;;;;;;2002113;29;20585;-90
2022/09/03 04:53:37;;;;;;;10.25;6.18;;;;;;;;;;2009004;29;20029;-90
2022/09/03 04:54:38;;;;;;;7.18;5.82;;;;;;;;;;2017402;29;20407;-90
2022/09/03 04:55:38;;;;;;;7.40;5.60;;;;;;;;;;2017370;29;20196;-90
2022/09/03 04:56:39;;;;;;;7.97;5.82;;;;;;;;;;2017400;29;20271;-90
2022/09/03 04:57:41;;;;;;;7.40;5.35;;;;;;;;;;2016465;29;20247;-91
2022/09/03 04:58:42;;;;;;;7.85;5.93;;;;;;;;;;2016621;29;20496;-92
2022/09/03 04:59:43;;;;;;;11.75;5.25;;;;;;;;;;2016655;29;20025;-92
2022/09/03 05:00:44;;;;;;;6.35;5.32;;;;;;;;;;2016592;29;20029;-91
2022/09/03 05:01:44;;;;;;;7.78;5.97;;;;;;;;;;2008700;29;20026;-91
2022/09/03 05:02:50;;;;;;;8.52;5.43;;;;;;;;;;2008776;29;20109;-91
2022/09/03 05:03:51;;;;;;;7.90;5.22;;;;;;;;;;2009612;29;20129;-90
2022/09/03 05:04:52;;;;;;;8.18;6.22;;;;;;;;;;2016403;29;20029;-90
2022/09/03 05:05:54;;;;;;;7.47;5.28;;;;;;;;;;2008843;29;20102;-92
2022/09/03 05:06:55;;;;;;;6.32;5.47;;;;;;;;;;2016475;29;20108;-91
2022/09/03 05:08:00;;;;;;;6.18;5.03;;;;;;;;;;2016396;29;20577;-92
2022/09/03 05:09:01;;;;;;;10.43;4.90;;;;;;;;;;2017310;29;20032;-90
2022/09/03 05:10:02;;;;;;;7.05;4.82;;;;;;;;;;2008690;29;20393;-91
2022/09/03 05:11:04;;;;;;;7.80;5.00;;;;;;;;;;2001072;29;20058;-91
2022/09/03 05:12:04;;;;;;;7.50;5.40;;;;;;;;;;2008611;29;20037;-90
2022/09/03 05:13:05;;;;;;;6.30;4.97;;;;;;;;;;2016447;29;20594;-90
2022/09/03 05:14:06;;;;;;;6.65;5.10;;;;;;;;;;2016482;29;20105;-90
2022/09/03 05:15:07;;;;;;;6.72;5.13;;;;;;;;;;2017196;29;20438;-90
2022/09/03 05:16:09;;;;;;;6.80;4.55;;;;;;;;;;2008492;29;20719;-91
2022/09/03 05:17:10;;;;;;;8.25;5.13;;;;;;;;;;2001216;29;20085;-90
2022/09/03 05:18:11;;;;;;;6.35;4.97;;;;;;;;;;2008622;29;20098;-90
2022/09/03 05:19:11;;;;;;;6.20;4.80;;;;;;;;;;2017083;29;20080;-91
2022/09/03 05:20:12;;;;;;;6.97;5.05;;;;;;;;;;2008519;29;20116;-91
2022/09/03 05:21:14;;;;;;;7.70;6.32;;;;;;;;;;2008795;29;20421;-89
2022/09/03 05:22:20;;;;;;;7.03;5.32;;;;;;;;;;2016190;29;20082;-90
2022/09/03 05:23:23;;;;;;;8.00;4.95;;;;;;;;;;2008673;29;20132;-91
2022/09/03 05:24:23;;;;;;;6.63;4.75;;;;;;;;;;2000642;29;20029;-91
2022/09/03 05:25:24;;;;;;;7.70;5.07;;;;;;;;;;2000338;29;20513;-90
2022/09/03 05:26:27;;;;;;;5.30;4.80;;;;;;;;;;2008315;29;20025;-90
2022/09/03 05:27:30;;;;;;;5.78;5.15;;;;;;;;;;2017037;29;20025;-90
2022/09/03 05:28:30;;;;;;;7.22;5.38;;;;;;;;;;2009312;29;20029;-88
2022/09/03 05:29:31;;;;;;;5.95;4.80;;;;;;;;;;2008651;29;20079;-89
2022/09/03 05:30:31;;;;;;;5.97;4.82;;;;;;;;;;2016169;29;20056;-90
2022/09/03 05:31:35;;;;;;;8.30;5.40;;;;;;;;;;2008542;29;20089;-90
2022/09/03 05:32:35;;;;;;;5.70;5.07;;;;;;;;;;1671167;29;10264758;-89
2022/09/03 05:33:38;;;;;;;7.10;5.30;;;;;;;;;;2008568;29;20552;-88
2022/09/03 05:34:38;;;;;;;6.18;5.57;;;;;;;;;;2008564;29;20445;-91
2022/09/03 05:35:40;;;;;;;8.30;5.00;;;;;;;;;;2017165;29;20351;-92
2022/09/03 05:36:40;;;;;;;8.10;5.30;;;;;;;;;;2018824;29;20025;-89
2022/09/03 05:37:41;;;;;;;6.60;5.30;;;;;;;;;;2017090;29;20029;-89
2022/09/03 05:38:42;;;;;;;8.00;5.70;;;;;;;;;;2008586;29;20113;-89
2022/09/03 05:39:42;;;;;;;7.53;6.13;;;;;;;;;;2000669;29;20070;-89
2022/09/03 05:40:43;;;;;;;6.70;5.45;;;;;;;;;;2008506;29;20508;-89
2022/09/03 05:41:43;;;;;;;6.57;5.00;;;;;;;;;;2016864;29;20053;-90
2022/09/03 05:42:44;;;;;;;6.57;5.20;;;;;;;;;;2008486;29;20018;-89
2022/09/03 05:43:44;;;;;;;7.03;5.40;;;;;;;;;;2008379;29;20031;-89
2022/09/03 05:44:44;;;;;;;6.78;5.13;;;;;;;;;;2008508;29;20033;-89
2022/09/03 05:45:45;;;;;;;7.30;5.22;;;;;;;;;;2008301;29;20029;-89
2022/09/03 05:46:46;;;;;;;6.68;5.70;;;;;;;;;;2008351;29;20597;-91
2022/09/03 05:47:46;;;;;;;6.15;5.07;;;;;;;;;;2016096;29;20029;-89
2022/09/03 05:48:46;;;;;;;7.28;5.00;;;;;;;;;;2008475;29;20065;-89
2022/09/03 05:49:47;;;;;;;5.63;5.05;;;;;;;;;;2016290;29;20037;-88
2022/09/03 05:50:48;;;;;;;5.70;5.10;;;;;;;;;;2007908;29;20025;-89
2022/09/03 05:51:48;;;;;;;11.40;5.28;;;;;;;;;;2008490;29;20094;-89
2022/09/03 05:52:50;;;;;;;5.85;5.18;;;;;;;;;;2016053;29;20108;-89
2022/09/03 05:53:52;;;;;;;5.32;4.82;;;;;;;;;;2008520;29;20029;-88
2022/09/03 05:54:52;;;;;;;6.40;4.95;;;;;;;;;;2010103;29;20061;-87
2022/09/03 05:56:00;;;;;;;7.53;4.90;;;;;;;;;;2017486;29;20087;-90
2022/09/03 05:57:00;;;;;;;6.18;4.50;;;;;;;;;;2017235;29;20044;-90
2022/09/03 05:58:01;;;;;;;7.50;4.27;;;;;;;;;;1668979;29;10138163;-90
2022/09/03 05:59:07;;;;;;;5.18;4.32;;;;;;;;;;2001229;29;20051;-91
2022/09/03 06:00:09;;;;;;;6.55;4.45;;;;;;;;;;2001716;29;20121;-90
2022/09/03 06:01:17;;;;;;;4.30;3.72;;;;;;;;;;2008709;29;20041;-91
2022/09/03 06:02:18;;;;;;;5.85;4.68;;;;;;;;;;2008652;29;20031;-92
2022/09/03 06:03:18;;;;;;;4.93;4.38;;;;;;;;;;2008525;29;20077;-89
2022/09/03 06:04:19;;;;;;;4.45;3.67;;;;;;;;;;2008597;29;20030;-89
2022/09/03 06:05:20;;;;;;;6.55;4.28;;;;;;;;;;2017329;29;20021;-91
2022/09/03 06:06:24;;;;;;;4.72;4.22;;;;;;;;;;2017359;29;20397;-91
2022/09/03 06:07:24;;;;;;;6.13;4.30;;;;;;;;;;2017677;29;20026;-91
2022/09/03 06:08:37;;;;;;;6.13;4.84;;;;;;;;;;1986758;29;10258188;-90
2022/09/03 06:09:38;;;;;;;4.95;3.80;;;;;;;;;;2015393;29;20905;-91
2022/09/03 06:10:38;;;;;;;5.50;4.05;;;;;;;;;;2016123;29;20038;-91
2022/09/03 06:11:41;;;;;;;6.10;3.72;;;;;;;;;;2017528;29;20073;-92
2022/09/03 06:12:48;;;;;;;7.68;4.25;;;;;;;;;;2015554;29;20025;-91
2022/09/03 06:13:48;;;;;;;6.88;4.22;;;;;;;;;;2008991;29;20051;-91
2022/09/03 06:14:49;;;;;;;4.32;3.70;;;;;;;;;;2015697;29;20037;-90
2022/09/03 06:15:49;;;;;;;7.28;4.45;;;;;;;;;;2025113;29;20028;-91
2022/09/03 06:16:51;;;;;;;4.13;3.72;;;;;;;;;;2015038;29;20154;-91
2022/09/03 06:17:51;;;;;;;4.85;3.47;;;;;;;;;;2016083;29;20212;-91
2022/09/03 06:18:53;;;;;;;5.50;3.63;;;;;;;;;;2016942;29;20100;-90
2022/09/03 06:19:53;;;;;;;6.68;4.20;;;;;;;;;;2018440;29;20088;-91
2022/09/03 06:20:58;;;;;;;4.65;3.97;;;;;;;;;;2016029;29;20040;-91
2022/09/03 06:21:58;;;;;;;5.88;4.53;;;;;;;;;;2009114;29;20108;-91
2022/09/03 06:22:59;;;;;;;4.90;3.45;;;;;;;;;;2008361;29;20022;-91
2022/09/03 06:23:59;;;;;;;5.95;3.83;;;;;;;;;;2016256;29;20040;-91
2022/09/03 06:25:00;;;;;;;4.90;4.18;;;;;;;;;;2015677;29;20029;-92
2022/09/03 06:26:05;;;;;;;6.63;3.70;;;;;;;;;;2016056;29;20021;-92
2022/09/03 06:27:06;;;;;;;6.88;3.67;;;;;;;;;;2015873;29;20035;-92
2022/09/03 06:28:07;;;;;;;4.72;4.07;;;;;;;;;;2016332;29;20028;-90